createdAt,value
2022-10-19T00:00:16.002Z,22.45
2022-10-19T00:12:20.230Z,18.20
2022-10-19T00:18:22.495Z,19.27
2022-10-19T00:24:24.799Z,18.90
2022-10-19T00:30:26.910Z,17.33
2022-10-19T00:36:35.205Z,18.33
2022-10-19T00:42:37.433Z,15.63
2022-10-19T00:48:39.509Z,14.20
2022-10-19T00:54:43.135Z,15.37
2022-10-19T01:00:45.407Z,16.00
2022-10-19T01:06:47.857Z,13.60
2022-10-19T01:13:06.254Z,15.80
2022-10-19T01:19:36.321Z,14.25
2022-10-19T01:25:55.581Z,13.63
2022-10-19T01:32:03.350Z,14.23
2022-10-19T01:38:14.290Z,12.77
2022-10-19T01:44:42.464Z,12.90
2022-10-19T01:51:09.330Z,12.20
2022-10-19T01:57:14.438Z,13.40
2022-10-19T02:03:18.289Z,12.88
2022-10-19T02:09:20.905Z,11.27
2022-10-19T02:15:25.318Z,12.13
2022-10-19T02:21:28.429Z,13.48
2022-10-19T02:27:30.634Z,12.10
2022-10-19T02:33:33.279Z,13.55
2022-10-19T02:39:35.508Z,13.90
2022-10-19T02:45:43.546Z,13.10
2022-10-19T02:52:01.710Z,14.35
2022-10-19T02:58:03.928Z,13.27
2022-10-19T03:04:06.170Z,16.70
2022-10-19T03:10:08.663Z,14.68
2022-10-19T03:16:12.732Z,13.82
2022-10-19T03:22:15.202Z,15.75
2022-10-19T03:28:17.402Z,15.07
2022-10-19T03:34:19.745Z,15.03
2022-10-19T03:40:21.997Z,16.08
2022-10-19T03:46:24.567Z,14.57
2022-10-19T03:52:26.693Z,15.30
2022-10-19T03:58:29.181Z,15.90
2022-10-19T04:04:31.165Z,17.05
2022-10-19T04:10:33.397Z,16.43
2022-10-19T04:16:35.392Z,17.47
2022-10-19T04:22:37.650Z,18.30
2022-10-19T04:28:39.813Z,16.10
2022-10-19T04:34:42.136Z,16.80
2022-10-19T04:40:44.508Z,16.40
2022-10-19T04:46:46.691Z,17.73
2022-10-19T04:52:48.910Z,16.80
2022-10-19T04:58:51.034Z,17.77
2022-10-19T05:04:53.308Z,22.13
2022-10-19T05:10:55.469Z,19.37
2022-10-19T05:16:57.529Z,17.30
2022-10-19T05:23:03.281Z,18.90
2022-10-19T05:29:12.103Z,18.38
2022-10-19T05:35:16.453Z,20.58
2022-10-19T05:41:21.820Z,18.40
2022-10-19T05:47:27.342Z,18.40
2022-10-19T05:53:32.944Z,25.83
2022-10-19T06:05:37.559Z,20.35
2022-10-19T06:11:41.798Z,20.63
2022-10-19T06:17:43.890Z,22.50
2022-10-19T06:23:49.865Z,22.87
2022-10-19T06:29:52.115Z,20.25
2022-10-19T06:35:54.591Z,18.95
2022-10-19T06:41:56.979Z,19.77
2022-10-19T06:48:04.963Z,17.67
2022-10-19T06:54:09.863Z,16.85
2022-10-19T07:00:12.657Z,17.52
2022-10-19T07:06:14.958Z,17.33
2022-10-19T07:12:17.352Z,19.70
2022-10-19T07:18:19.597Z,18.65
2022-10-19T07:30:24.196Z,13.48
2022-10-19T07:36:27.289Z,13.80
2022-10-19T07:42:30.797Z,13.55
2022-10-19T07:48:34.006Z,11.23
2022-10-19T07:54:36.079Z,12.90
2022-10-19T08:07:00.536Z,11.45
2022-10-19T08:13:02.556Z,12.80
2022-10-19T08:19:13.265Z,14.32
2022-10-19T08:25:15.568Z,8.93
2022-10-19T08:31:22.872Z,8.35
2022-10-19T08:37:43.801Z,8.43
2022-10-19T08:44:31.107Z,8.13
2022-10-19T08:50:42.687Z,7.93
2022-10-19T08:56:53.711Z,7.97
2022-10-19T09:03:32.005Z,7.68
2022-10-19T09:09:51.474Z,7.90
2022-10-19T09:15:55.629Z,8.23
2022-10-19T09:22:06.899Z,7.68
2022-10-19T09:28:38.818Z,8.07
2022-10-19T09:34:46.566Z,7.88
2022-10-19T09:40:48.925Z,12.32
2022-10-19T09:47:18.442Z,10.02
2022-10-19T09:53:21.935Z,7.75
2022-10-19T09:59:28.549Z,7.75
2022-10-19T10:05:39.530Z,7.63
2022-10-19T10:11:46.384Z,7.90
2022-10-19T10:17:49.996Z,7.25
2022-10-19T10:24:13.187Z,6.43
2022-10-19T10:30:20.089Z,5.95
2022-10-19T10:36:25.317Z,6.43
2022-10-19T10:42:35.623Z,5.90
2022-10-19T10:48:41.393Z,7.18
2022-10-19T10:55:08.661Z,6.63
2022-10-19T11:01:20.577Z,6.88
2022-10-19T11:07:25.618Z,7.97
2022-10-19T11:13:33.146Z,9.77
2022-10-19T11:19:42.515Z,6.80
2022-10-19T11:26:15.895Z,5.60
2022-10-19T11:32:36.000Z,5.60
2022-10-19T11:39:16.242Z,5.78
2022-10-19T11:45:46.417Z,5.40
2022-10-19T11:51:57.730Z,6.00
2022-10-19T11:58:12.966Z,10.03
2022-10-19T12:04:35.123Z,5.63
2022-10-19T12:10:43.166Z,6.18
2022-10-19T12:16:51.009Z,6.43
2022-10-19T12:22:53.450Z,6.47
2022-10-19T12:29:06.697Z,6.47
2022-10-19T12:35:17.585Z,5.68
2022-10-19T12:41:36.884Z,5.82
2022-10-19T12:47:38.871Z,6.18
2022-10-19T12:53:49.250Z,6.65
2022-10-19T13:00:05.312Z,6.43
2022-10-19T13:06:32.879Z,5.40
2022-10-19T13:12:46.679Z,6.13
2022-10-19T13:19:02.534Z,5.55
2022-10-19T13:25:16.824Z,4.78
2022-10-19T13:31:34.296Z,11.93
2022-10-19T13:37:36.520Z,5.55
2022-10-19T13:43:39.999Z,5.80
2022-10-19T13:50:00.245Z,6.07
2022-10-19T13:56:23.166Z,5.68
2022-10-19T14:02:47.812Z,6.03
2022-10-19T14:08:59.395Z,5.43
2022-10-19T14:15:01.460Z,5.40
2022-10-19T14:21:08.655Z,4.90
2022-10-19T14:27:19.613Z,6.95
2022-10-19T14:33:21.926Z,5.70
2022-10-19T14:39:29.666Z,4.55
2022-10-19T14:45:33.011Z,6.18
2022-10-19T14:58:17.250Z,5.97
2022-10-19T15:04:29.518Z,6.05
2022-10-19T15:10:41.823Z,7.00
2022-10-19T15:16:51.229Z,6.67
2022-10-19T15:29:38.618Z,6.40
2022-10-19T15:35:44.394Z,6.70
2022-10-19T15:41:49.607Z,8.30
2022-10-19T15:48:41.450Z,8.35
2022-10-19T15:54:43.570Z,8.07
2022-10-19T16:00:45.565Z,8.48
2022-10-19T16:06:47.645Z,8.33
2022-10-19T16:12:50.151Z,9.70
2022-10-19T16:18:52.655Z,12.05
2022-10-19T16:24:54.685Z,13.38
2022-10-19T16:30:57.447Z,12.23
2022-10-19T16:43:08.163Z,11.02
2022-10-19T16:49:10.376Z,11.93
2022-10-19T16:55:12.444Z,11.27
2022-10-19T17:01:18.012Z,11.97
2022-10-19T17:07:20.171Z,11.95
2022-10-19T17:13:22.333Z,12.17
2022-10-19T17:19:24.553Z,12.03
2022-10-19T17:25:26.549Z,13.98
2022-10-19T17:31:29.725Z,11.47
2022-10-19T17:37:31.830Z,13.50
2022-10-19T17:43:34.447Z,12.30
2022-10-19T17:49:37.349Z,12.70
2022-10-19T17:55:39.374Z,13.80
2022-10-19T18:01:41.933Z,14.07
2022-10-19T18:07:44.594Z,31.73
2022-10-19T18:19:49.159Z,21.48
2022-10-19T18:25:54.297Z,18.92
2022-10-19T18:31:56.942Z,21.52
2022-10-19T18:37:59.376Z,28.30
2022-10-19T18:44:05.512Z,31.75
2022-10-19T18:50:07.918Z,25.65
2022-10-19T18:56:12.923Z,22.35
2022-10-19T19:02:22.216Z,17.77
2022-10-19T19:08:24.925Z,18.20
2022-10-19T19:14:27.261Z,21.63
2022-10-19T19:20:29.387Z,18.27
2022-10-19T19:26:34.827Z,16.85
2022-10-19T19:32:37.874Z,16.08
2022-10-19T19:38:40.378Z,15.77
2022-10-19T19:44:42.479Z,13.88
2022-10-19T19:50:47.092Z,12.83
2022-10-19T19:56:53.541Z,11.00
2022-10-19T20:02:57.214Z,10.02
2022-10-19T20:08:59.396Z,8.20
2022-10-19T20:15:01.797Z,7.60
2022-10-19T20:21:04.756Z,7.07
2022-10-19T20:27:06.935Z,7.13
2022-10-19T20:33:09.025Z,7.20
2022-10-19T20:39:11.370Z,6.17
2022-10-19T20:45:13.785Z,6.40
2022-10-19T20:51:21.325Z,5.57
2022-10-19T20:57:23.270Z,6.93
2022-10-19T21:03:25.376Z,7.37
2022-10-19T21:09:27.528Z,6.47
2022-10-19T21:15:29.763Z,5.97
2022-10-19T21:21:37.287Z,5.80
2022-10-19T21:27:39.622Z,5.82
2022-10-19T21:33:41.668Z,5.07
2022-10-19T21:39:43.812Z,4.97
2022-10-19T21:45:46.042Z,5.05
2022-10-19T21:51:52.264Z,5.70
2022-10-19T21:57:54.314Z,4.57
2022-10-19T22:04:00.600Z,3.90
2022-10-19T22:10:02.869Z,4.20
2022-10-19T22:16:10.594Z,3.67
2022-10-19T22:22:12.706Z,3.90
2022-10-19T22:28:15.062Z,2.92
2022-10-19T22:34:17.772Z,3.35
2022-10-19T22:46:50.295Z,3.03
2022-10-19T22:52:52.456Z,2.60
2022-10-19T22:58:58.554Z,2.97
2022-10-19T23:05:00.527Z,3.00
2022-10-19T23:11:02.637Z,2.87
2022-10-19T23:17:04.792Z,3.07
2022-10-19T23:23:07.868Z,3.72
2022-10-19T23:29:10.724Z,2.58
2022-10-19T23:35:12.717Z,2.90
2022-10-19T23:41:16.122Z,3.63
2022-10-19T23:47:18.407Z,3.17
2022-10-19T23:53:20.473Z,2.92
2022-10-19T23:59:22.710Z,3.30
